createdAt,value
2022-12-24T00:00:52.181Z,35.63
2022-12-24T00:01:54.741Z,33.75
2022-12-24T00:02:57.440Z,31.05
2022-12-24T00:04:00.085Z,29.11
2022-12-24T00:05:02.668Z,30.03
2022-12-24T00:06:05.482Z,32.67
2022-12-24T00:07:08.015Z,32.38
2022-12-24T00:08:10.628Z,28.44
2022-12-24T00:09:13.224Z,32.61
2022-12-24T00:10:16.617Z,33.34
2022-12-24T00:11:19.163Z,30.75
2022-12-24T00:12:21.665Z,33.75
2022-12-24T00:13:24.281Z,28.01
2022-12-24T00:14:26.802Z,32.21
2022-12-24T00:15:29.339Z,29.08
2022-12-24T00:16:32.235Z,35.48
2022-12-24T00:17:35.136Z,33.06
2022-12-24T00:18:43.555Z,31.77
2022-12-24T00:19:42.176Z,31.50
2022-12-24T00:20:45.025Z,30.89
2022-12-24T00:21:47.564Z,33.43
2022-12-24T00:22:50.093Z,30.09
2022-12-24T00:23:52.673Z,34.99
2022-12-24T00:24:55.212Z,31.71
2022-12-24T00:25:57.657Z,29.14
2022-12-24T00:27:00.717Z,31.95
2022-12-24T00:28:03.253Z,37.20
2022-12-24T00:29:05.829Z,32.27
2022-12-24T00:30:09.898Z,29.68
2022-12-24T00:31:12.512Z,32.33
2022-12-24T00:32:15.253Z,30.34
2022-12-24T00:33:22.661Z,28.24
2022-12-24T00:34:22.184Z,34.10
2022-12-24T00:35:24.723Z,29.66
2022-12-24T00:36:27.458Z,35.12
2022-12-24T00:37:29.983Z,31.12
2022-12-24T00:38:32.439Z,29.47
2022-12-24T00:39:35.000Z,31.00
2022-12-24T00:40:37.830Z,31.92
2022-12-24T00:41:40.269Z,31.62
2022-12-24T00:42:42.804Z,29.55
2022-12-24T00:43:45.459Z,30.95
2022-12-24T00:44:48.004Z,34.79
2022-12-24T00:45:50.551Z,34.08
2022-12-24T00:46:53.176Z,29.99
2022-12-24T00:47:55.719Z,36.57
2022-12-24T00:48:58.243Z,35.91
2022-12-24T00:50:00.857Z,32.38
2022-12-24T00:51:03.444Z,32.74
2022-12-24T00:52:06.267Z,32.67
2022-12-24T00:53:08.849Z,34.25
2022-12-24T00:54:11.439Z,31.36
2022-12-24T00:55:14.056Z,33.39
2022-12-24T00:56:16.914Z,32.06
2022-12-24T00:57:19.457Z,33.77
2022-12-24T00:58:22.000Z,31.50
2022-12-24T00:59:24.555Z,30.27
2022-12-24T01:00:27.320Z,33.53
2022-12-24T01:01:29.960Z,33.34
2022-12-24T01:02:32.736Z,34.11
2022-12-24T01:03:35.795Z,32.28
2022-12-24T01:04:38.620Z,34.61
2022-12-24T01:05:41.190Z,33.20
2022-12-24T01:06:43.977Z,33.46
2022-12-24T01:07:46.521Z,29.79
2022-12-24T01:08:49.066Z,34.35
2022-12-24T01:09:51.613Z,36.25
2022-12-24T01:10:54.723Z,33.26
2022-12-24T01:11:57.189Z,35.17
2022-12-24T01:12:59.729Z,38.05
2022-12-24T01:14:02.377Z,32.68
2022-12-24T01:15:04.922Z,33.65
2022-12-24T01:16:08.413Z,32.89
2022-12-24T01:17:10.934Z,39.68
2022-12-24T01:18:13.467Z,35.86
2022-12-24T01:19:16.003Z,33.04
2022-12-24T01:20:18.665Z,33.59
2022-12-24T01:21:21.367Z,55.00
2022-12-24T01:22:23.909Z,31.93
2022-12-24T01:23:26.397Z,34.34
2022-12-24T01:24:28.965Z,30.97
2022-12-24T01:25:31.501Z,33.85
2022-12-24T01:26:34.177Z,34.57
2022-12-24T01:27:36.712Z,32.69
2022-12-24T01:28:39.175Z,32.63
2022-12-24T01:29:41.716Z,35.87
2022-12-24T01:30:44.472Z,33.64
2022-12-24T01:31:47.151Z,32.91
2022-12-24T01:32:49.732Z,34.85
2022-12-24T01:33:52.270Z,34.73
2022-12-24T01:34:54.823Z,31.17
2022-12-24T01:35:57.489Z,39.02
2022-12-24T01:37:00.452Z,32.13
2022-12-24T01:38:02.978Z,35.91
2022-12-24T01:39:05.513Z,33.84
2022-12-24T01:40:08.445Z,34.16
2022-12-24T01:41:12.004Z,36.39
2022-12-24T01:42:14.715Z,37.12
2022-12-24T01:43:17.252Z,34.43
2022-12-24T01:44:19.859Z,34.64
2022-12-24T01:45:22.391Z,30.71
2022-12-24T01:46:25.087Z,32.17
2022-12-24T01:47:27.810Z,35.08
2022-12-24T01:48:30.336Z,34.01
2022-12-24T01:49:32.943Z,33.44
2022-12-24T01:50:35.784Z,32.72
2022-12-24T01:51:38.302Z,33.52
2022-12-24T01:52:40.881Z,35.95
2022-12-24T01:53:43.411Z,33.02
2022-12-24T01:54:45.944Z,34.81
2022-12-24T01:55:48.474Z,32.85
2022-12-24T01:56:51.115Z,32.71
2022-12-24T01:57:53.686Z,29.47
2022-12-24T01:58:56.213Z,32.45
2022-12-24T01:59:58.781Z,34.40
2022-12-24T02:01:01.575Z,29.57
2022-12-24T02:02:04.154Z,33.32
2022-12-24T02:03:07.129Z,37.40
2022-12-24T02:04:10.152Z,36.39
2022-12-24T02:05:12.679Z,36.01
2022-12-24T02:06:15.416Z,33.79
2022-12-24T02:07:18.009Z,34.45
2022-12-24T02:08:20.570Z,35.93
2022-12-24T02:09:23.004Z,38.97
2022-12-24T02:10:25.847Z,32.24
2022-12-24T02:11:28.410Z,34.31
2022-12-24T02:12:30.950Z,29.93
2022-12-24T02:13:33.526Z,34.39
2022-12-24T02:14:36.060Z,29.29
2022-12-24T02:15:38.676Z,35.90
2022-12-24T02:16:41.668Z,33.76
2022-12-24T02:17:44.359Z,31.99
2022-12-24T02:18:47.065Z,37.31
2022-12-24T02:19:49.605Z,35.25
2022-12-24T02:20:52.247Z,34.04
2022-12-24T02:21:54.813Z,41.54
2022-12-24T02:22:57.340Z,43.66
2022-12-24T02:24:00.303Z,34.91
2022-12-24T02:25:02.845Z,31.04
2022-12-24T02:26:05.584Z,35.68
2022-12-24T02:27:08.120Z,37.49
2022-12-24T02:28:10.664Z,39.23
2022-12-24T02:29:13.247Z,36.16
2022-12-24T02:30:15.986Z,32.11
2022-12-24T02:31:18.536Z,36.94
2022-12-24T02:32:21.055Z,34.09
2022-12-24T02:33:23.630Z,36.27
2022-12-24T02:34:26.209Z,37.65
2022-12-24T02:35:28.642Z,36.19
2022-12-24T02:36:31.276Z,33.94
2022-12-24T02:37:33.810Z,34.98
2022-12-24T02:38:36.351Z,32.27
2022-12-24T02:39:38.906Z,36.22
2022-12-24T02:40:41.750Z,35.23
2022-12-24T02:41:44.287Z,45.81
2022-12-24T02:42:46.816Z,38.93
2022-12-24T02:43:49.352Z,38.81
2022-12-24T02:44:51.945Z,40.74
2022-12-24T02:45:58.954Z,39.77
2022-12-24T02:46:59.051Z,38.91
2022-12-24T02:48:01.625Z,39.68
2022-12-24T02:49:04.057Z,35.91
2022-12-24T02:50:07.037Z,38.23
2022-12-24T02:51:09.576Z,35.76
2022-12-24T02:52:12.554Z,41.48
2022-12-24T02:53:15.247Z,36.60
2022-12-24T02:54:17.747Z,38.55
2022-12-24T02:55:20.331Z,39.32
2022-12-24T02:56:22.973Z,38.69
2022-12-24T02:57:25.502Z,44.43
2022-12-24T02:58:28.095Z,36.82
2022-12-24T02:59:30.621Z,39.93
2022-12-24T03:00:33.456Z,37.14
2022-12-24T03:01:36.220Z,35.71
2022-12-24T03:02:39.061Z,42.56
2022-12-24T03:03:41.638Z,40.93
2022-12-24T03:04:45.282Z,39.84
2022-12-24T03:05:47.845Z,43.31
2022-12-24T03:06:50.596Z,39.48
2022-12-24T03:07:53.100Z,41.67
2022-12-24T03:08:55.640Z,38.89
2022-12-24T03:09:58.167Z,42.85
2022-12-24T03:11:00.926Z,46.33
2022-12-24T03:12:03.402Z,45.99
2022-12-24T03:13:05.937Z,43.84
2022-12-24T03:14:08.506Z,37.09
2022-12-24T03:15:11.017Z,38.38
2022-12-24T03:16:14.639Z,41.88
2022-12-24T03:17:17.257Z,44.35
2022-12-24T03:18:19.799Z,41.23
2022-12-24T03:19:22.341Z,42.79
2022-12-24T03:20:25.217Z,38.14
2022-12-24T03:21:27.784Z,37.76
2022-12-24T03:22:30.283Z,37.72
2022-12-24T03:23:32.812Z,41.89
2022-12-24T03:24:35.384Z,36.28
2022-12-24T03:25:37.917Z,40.92
2022-12-24T03:26:40.710Z,42.54
2022-12-24T03:27:43.271Z,39.52
2022-12-24T03:28:45.815Z,42.57
2022-12-24T03:29:48.378Z,41.21
2022-12-24T03:30:51.386Z,39.02
2022-12-24T03:31:53.977Z,39.00
2022-12-24T03:32:56.501Z,39.28
2022-12-24T03:33:59.021Z,40.61
2022-12-24T03:35:01.553Z,36.59
2022-12-24T03:36:04.389Z,40.56
2022-12-24T03:37:07.104Z,39.18
2022-12-24T03:38:09.738Z,37.91
2022-12-24T03:39:12.268Z,41.47
2022-12-24T03:40:15.446Z,41.99
2022-12-24T03:41:17.985Z,41.97
2022-12-24T03:42:20.555Z,41.46
2022-12-24T03:43:23.079Z,34.67
2022-12-24T03:44:25.633Z,42.36
2022-12-24T03:45:28.179Z,38.55
2022-12-24T03:46:30.816Z,43.63
2022-12-24T03:47:33.384Z,39.97
2022-12-24T03:48:35.919Z,37.68
2022-12-24T03:49:38.443Z,34.07
2022-12-24T03:50:41.185Z,43.05
2022-12-24T03:51:43.613Z,41.21
2022-12-24T03:52:46.197Z,36.51
2022-12-24T03:53:48.737Z,37.65
2022-12-24T03:54:51.266Z,40.89
2022-12-24T03:55:53.835Z,37.06
2022-12-24T03:56:56.566Z,38.55
2022-12-24T03:57:59.046Z,35.75
2022-12-24T03:59:01.598Z,37.73
2022-12-24T04:00:04.246Z,34.99
2022-12-24T04:01:06.920Z,38.97
2022-12-24T04:02:09.698Z,37.53
2022-12-24T04:03:12.464Z,37.91
2022-12-24T04:04:15.271Z,37.46
2022-12-24T04:05:18.107Z,35.92
2022-12-24T04:06:20.859Z,46.94
2022-12-24T04:07:23.417Z,40.94
2022-12-24T04:08:25.988Z,36.91
2022-12-24T04:09:28.516Z,36.79
2022-12-24T04:10:31.273Z,39.26
2022-12-24T04:11:33.790Z,38.09
2022-12-24T04:12:36.318Z,41.17
2022-12-24T04:13:39.006Z,36.79
2022-12-24T04:14:41.510Z,35.62
2022-12-24T04:15:44.039Z,38.37
2022-12-24T04:16:46.756Z,39.13
2022-12-24T04:17:49.318Z,37.49
2022-12-24T04:18:51.903Z,37.96
2022-12-24T04:19:54.408Z,36.39
2022-12-24T04:20:57.406Z,35.32
2022-12-24T04:21:59.957Z,37.10
2022-12-24T04:23:02.490Z,39.48
2022-12-24T04:24:05.064Z,36.51
2022-12-24T04:25:07.595Z,35.77
2022-12-24T04:26:10.985Z,36.58
2022-12-24T04:27:13.537Z,44.57
2022-12-24T04:28:16.063Z,39.51
2022-12-24T04:29:18.699Z,38.20
2022-12-24T04:30:21.677Z,33.88
2022-12-24T04:31:24.325Z,36.57
2022-12-24T04:32:27.045Z,33.81
2022-12-24T04:33:29.680Z,38.00
2022-12-24T04:34:32.404Z,34.82
2022-12-24T04:35:34.952Z,36.83
2022-12-24T04:36:37.702Z,37.22
2022-12-24T04:37:40.224Z,35.39
2022-12-24T04:38:42.772Z,35.31
2022-12-24T04:39:45.243Z,36.81
2022-12-24T04:40:48.091Z,37.91
2022-12-24T04:41:50.701Z,33.97
2022-12-24T04:42:53.212Z,39.15
2022-12-24T04:43:55.744Z,34.49
2022-12-24T04:44:58.485Z,39.53
2022-12-24T04:46:01.050Z,33.79
2022-12-24T04:47:03.756Z,39.17
2022-12-24T04:48:06.278Z,38.79
2022-12-24T04:49:08.822Z,41.95
2022-12-24T04:50:11.800Z,35.67
2022-12-24T04:51:14.625Z,30.72
2022-12-24T04:52:17.164Z,31.73
2022-12-24T04:53:19.699Z,34.93
2022-12-24T04:54:22.264Z,35.55
2022-12-24T04:55:24.834Z,38.88
2022-12-24T04:56:27.812Z,31.62
2022-12-24T04:57:30.300Z,36.52
2022-12-24T04:58:32.836Z,37.53
2022-12-24T04:59:35.371Z,35.84
2022-12-24T05:00:38.146Z,38.34
2022-12-24T05:01:40.725Z,46.79
2022-12-24T05:02:43.748Z,33.42
2022-12-24T05:03:46.463Z,35.36
2022-12-24T05:04:49.161Z,37.29
2022-12-24T05:05:56.460Z,34.09
2022-12-24T05:06:56.299Z,36.82
2022-12-24T05:07:58.841Z,39.77
2022-12-24T05:09:01.390Z,35.14
2022-12-24T05:10:04.037Z,34.85
2022-12-24T05:11:06.612Z,37.69
2022-12-24T05:12:09.161Z,31.21
2022-12-24T05:13:11.688Z,33.78
2022-12-24T05:14:14.224Z,35.87
2022-12-24T05:15:16.758Z,34.56
2022-12-24T05:16:19.865Z,34.88
2022-12-24T05:17:22.685Z,35.96
2022-12-24T05:18:25.213Z,35.72
2022-12-24T05:19:27.773Z,36.40
2022-12-24T05:20:30.694Z,35.85
2022-12-24T05:21:33.289Z,37.68
2022-12-24T05:22:35.811Z,37.14
2022-12-24T05:23:38.391Z,41.40
2022-12-24T05:24:40.933Z,36.31
2022-12-24T05:25:43.471Z,33.75
2022-12-24T05:26:46.453Z,41.85
2022-12-24T05:27:51.402Z,37.13
2022-12-24T05:28:53.396Z,39.18
2022-12-24T05:29:55.913Z,35.55
2022-12-24T05:30:58.664Z,37.93
2022-12-24T05:32:01.260Z,38.45
2022-12-24T05:33:03.756Z,36.77
2022-12-24T05:34:06.312Z,38.64
2022-12-24T05:35:08.864Z,41.81
2022-12-24T05:36:12.897Z,37.68
2022-12-24T05:37:15.457Z,35.43
2022-12-24T05:38:18.045Z,38.89
2022-12-24T05:39:20.707Z,37.59
2022-12-24T05:40:23.603Z,38.02
2022-12-24T05:41:26.141Z,35.54
2022-12-24T05:42:28.756Z,34.08
2022-12-24T05:43:31.291Z,35.05
2022-12-24T05:44:33.834Z,35.69
2022-12-24T05:45:36.476Z,35.69
2022-12-24T05:46:39.300Z,37.09
2022-12-24T05:47:43.616Z,33.96
2022-12-24T05:48:46.390Z,38.88
2022-12-24T05:49:49.190Z,41.54
2022-12-24T05:50:52.128Z,36.62
2022-12-24T05:51:54.566Z,37.41
2022-12-24T05:52:57.169Z,33.69
2022-12-24T05:53:59.735Z,37.45
2022-12-24T05:55:02.283Z,36.02
2022-12-24T05:56:05.122Z,35.62
2022-12-24T05:57:07.660Z,40.49
2022-12-24T05:58:10.556Z,42.56
2022-12-24T05:59:13.187Z,36.94
2022-12-24T06:00:16.462Z,38.59
2022-12-24T06:01:19.768Z,36.90
2022-12-24T06:02:22.462Z,40.75
2022-12-24T06:03:25.487Z,38.74
2022-12-24T06:04:29.161Z,36.36
2022-12-24T06:05:32.289Z,38.38
2022-12-24T06:06:35.272Z,39.77
2022-12-24T06:07:37.794Z,39.03
2022-12-24T06:08:40.369Z,38.06
2022-12-24T06:09:42.930Z,34.90
2022-12-24T06:10:45.567Z,33.11
2022-12-24T06:11:48.103Z,37.27
2022-12-24T06:12:50.641Z,34.47
2022-12-24T06:13:53.248Z,33.79
2022-12-24T06:14:55.779Z,34.45
2022-12-24T06:15:58.369Z,33.31
2022-12-24T06:17:01.244Z,33.29
2022-12-24T06:18:03.889Z,40.48
2022-12-24T06:19:06.455Z,52.21
2022-12-24T06:20:10.528Z,34.82
2022-12-24T06:21:13.061Z,35.63
2022-12-24T06:22:15.598Z,35.11
2022-12-24T06:23:18.243Z,37.18
2022-12-24T06:24:20.847Z,35.91
2022-12-24T06:25:23.308Z,37.13
2022-12-24T06:26:25.930Z,34.20
2022-12-24T06:27:28.497Z,35.98
2022-12-24T06:28:31.051Z,36.46
2022-12-24T06:29:33.629Z,38.29
2022-12-24T06:30:36.607Z,38.81
2022-12-24T06:31:39.198Z,38.13
2022-12-24T06:32:42.025Z,36.36
2022-12-24T06:33:44.570Z,36.97
2022-12-24T06:34:47.118Z,37.89
2022-12-24T06:35:49.645Z,36.52
2022-12-24T06:36:52.290Z,35.03
2022-12-24T06:37:54.844Z,38.09
2022-12-24T06:38:57.360Z,41.06
2022-12-24T06:39:59.958Z,35.95
2022-12-24T06:41:02.495Z,35.05
2022-12-24T06:42:05.039Z,36.77
2022-12-24T06:43:07.581Z,38.44
2022-12-24T06:44:10.093Z,38.25
2022-12-24T06:45:12.700Z,37.03
2022-12-24T06:46:15.542Z,33.52
2022-12-24T06:47:18.404Z,35.22
2022-12-24T06:48:20.921Z,34.36
2022-12-24T06:49:23.451Z,37.80
2022-12-24T06:50:26.474Z,36.98
2022-12-24T06:51:29.009Z,38.51
2022-12-24T06:52:31.538Z,38.63
2022-12-24T06:53:34.079Z,36.27
2022-12-24T06:54:36.666Z,43.57
2022-12-24T06:55:39.269Z,39.17
2022-12-24T06:56:42.116Z,36.31
2022-12-24T06:57:44.706Z,38.43
2022-12-24T06:58:47.284Z,36.03
2022-12-24T06:59:49.808Z,38.84
2022-12-24T07:00:52.826Z,41.04
2022-12-24T07:01:55.419Z,38.07
2022-12-24T07:02:58.273Z,40.87
2022-12-24T07:04:01.196Z,38.64
2022-12-24T07:05:03.888Z,36.49
2022-12-24T07:06:06.855Z,38.90
2022-12-24T07:07:09.418Z,36.15
2022-12-24T07:08:12.009Z,40.85
2022-12-24T07:09:14.509Z,40.15
2022-12-24T07:10:17.460Z,37.58
2022-12-24T07:11:20.026Z,37.55
2022-12-24T07:12:22.584Z,42.16
2022-12-24T07:13:25.158Z,37.95
2022-12-24T07:14:27.682Z,38.70
2022-12-24T07:15:30.303Z,41.05
2022-12-24T07:16:33.247Z,39.08
2022-12-24T07:17:36.801Z,35.50
2022-12-24T07:18:40.390Z,35.89
2022-12-24T07:19:42.827Z,35.58
2022-12-24T07:20:45.977Z,35.12
2022-12-24T07:21:48.574Z,39.84
2022-12-24T07:22:51.090Z,37.83
2022-12-24T07:23:53.622Z,38.95
2022-12-24T07:24:56.180Z,38.45
2022-12-24T07:25:58.971Z,38.70
2022-12-24T07:27:01.957Z,36.14
2022-12-24T07:28:06.699Z,41.32
2022-12-24T07:29:09.775Z,36.23
2022-12-24T07:30:13.059Z,39.68
2022-12-24T07:31:15.856Z,41.60
2022-12-24T07:32:19.749Z,37.30
2022-12-24T07:33:22.294Z,44.66
2022-12-24T07:34:24.829Z,33.99
2022-12-24T07:35:27.386Z,41.23
2022-12-24T07:36:30.324Z,36.93
2022-12-24T07:37:32.826Z,39.67
2022-12-24T07:38:35.375Z,40.19
2022-12-24T07:39:37.884Z,40.59
2022-12-24T07:40:40.921Z,42.25
2022-12-24T07:41:43.476Z,41.81
2022-12-24T07:42:46.054Z,41.06
2022-12-24T07:43:48.574Z,43.84
2022-12-24T07:44:51.132Z,41.94
2022-12-24T07:45:53.647Z,39.30
2022-12-24T07:46:56.434Z,45.19
2022-12-24T07:47:59.415Z,43.09
2022-12-24T07:49:01.942Z,42.59
2022-12-24T07:50:04.686Z,42.03
2022-12-24T07:51:07.246Z,40.98
2022-12-24T07:52:09.760Z,37.11
2022-12-24T07:53:12.358Z,39.19
2022-12-24T07:54:14.919Z,39.87
2022-12-24T07:55:17.461Z,41.75
2022-12-24T07:56:20.400Z,35.71
2022-12-24T07:57:22.995Z,41.18
2022-12-24T07:58:25.575Z,42.22
2022-12-24T07:59:28.118Z,37.74
2022-12-24T08:00:31.657Z,36.04
2022-12-24T08:01:34.162Z,37.28
2022-12-24T08:02:37.251Z,36.00
2022-12-24T08:03:40.182Z,40.56
2022-12-24T08:04:43.074Z,35.06
2022-12-24T08:05:45.628Z,37.47
2022-12-24T08:06:48.252Z,34.63
2022-12-24T08:07:50.866Z,39.08
2022-12-24T08:08:53.445Z,36.91
2022-12-24T08:09:55.943Z,40.04
2022-12-24T08:10:58.683Z,38.01
2022-12-24T08:12:01.219Z,34.95
2022-12-24T08:13:03.678Z,36.17
2022-12-24T08:14:06.360Z,35.71
2022-12-24T08:15:08.933Z,42.43
2022-12-24T08:16:12.001Z,36.19
2022-12-24T08:17:14.768Z,39.44
2022-12-24T08:18:17.301Z,36.39
2022-12-24T08:19:19.911Z,35.92
2022-12-24T08:20:22.649Z,41.76
2022-12-24T08:21:25.197Z,34.21
2022-12-24T08:22:27.715Z,43.28
2022-12-24T08:23:30.285Z,39.94
2022-12-24T08:24:32.750Z,39.01
2022-12-24T08:25:35.320Z,39.37
2022-12-24T08:26:38.450Z,38.58
2022-12-24T08:27:40.994Z,41.36
2022-12-24T08:28:43.589Z,38.01
2022-12-24T08:29:46.170Z,41.21
2022-12-24T08:30:49.025Z,38.31
2022-12-24T08:31:51.645Z,43.02
2022-12-24T08:32:54.398Z,40.15
2022-12-24T08:33:56.926Z,37.02
2022-12-24T08:34:59.497Z,43.28
2022-12-24T08:36:02.060Z,39.63
2022-12-24T08:37:04.624Z,39.15
2022-12-24T08:38:07.146Z,41.23
2022-12-24T08:39:09.681Z,44.96
2022-12-24T08:40:13.208Z,45.09
2022-12-24T08:41:15.748Z,47.72
2022-12-24T08:42:18.341Z,45.45
2022-12-24T08:43:21.131Z,41.69
2022-12-24T08:44:23.704Z,40.03
2022-12-24T08:45:26.658Z,42.69
2022-12-24T08:46:29.853Z,44.00
2022-12-24T08:47:32.431Z,44.53
2022-12-24T08:48:34.969Z,41.32
2022-12-24T08:49:37.499Z,43.03
2022-12-24T08:50:40.396Z,43.47
2022-12-24T08:51:42.935Z,42.28
2022-12-24T08:52:45.480Z,42.35
2022-12-24T08:53:47.998Z,45.69
2022-12-24T08:54:50.526Z,45.31
2022-12-24T08:55:56.162Z,45.45
2022-12-24T08:56:57.674Z,45.68
2022-12-24T08:58:00.193Z,46.99
2022-12-24T08:59:02.762Z,42.84
2022-12-24T09:00:05.741Z,43.89
2022-12-24T09:01:08.385Z,42.34
2022-12-24T09:02:11.323Z,43.31
2022-12-24T09:03:14.440Z,42.85
2022-12-24T09:04:17.216Z,41.60
2022-12-24T09:05:19.778Z,42.05
2022-12-24T09:06:22.645Z,48.07
2022-12-24T09:07:25.205Z,41.82
2022-12-24T09:08:27.696Z,43.98
2022-12-24T09:09:36.011Z,47.73
2022-12-24T09:10:34.785Z,41.87
2022-12-24T09:11:37.354Z,39.35
2022-12-24T09:12:39.948Z,38.56
2022-12-24T09:13:42.534Z,40.39
2022-12-24T09:14:45.052Z,38.19
2022-12-24T09:15:47.563Z,39.28
2022-12-24T09:16:50.302Z,38.49
2022-12-24T09:17:52.891Z,40.87
2022-12-24T09:18:55.441Z,38.45
2022-12-24T09:19:58.250Z,41.99
2022-12-24T09:21:01.332Z,39.90
2022-12-24T09:22:03.915Z,45.35
2022-12-24T09:23:06.555Z,39.41
2022-12-24T09:24:09.064Z,37.87
2022-12-24T09:25:11.585Z,36.93
2022-12-24T09:26:14.521Z,46.92
2022-12-24T09:27:17.133Z,40.17
2022-12-24T09:28:19.694Z,42.80
2022-12-24T09:29:22.247Z,45.10
2022-12-24T09:30:24.913Z,43.03
2022-12-24T09:31:27.520Z,39.89
2022-12-24T09:32:30.266Z,42.85
2022-12-24T09:33:32.787Z,41.71
2022-12-24T09:34:35.446Z,39.54
2022-12-24T09:35:38.123Z,40.38
2022-12-24T09:36:40.968Z,43.20
2022-12-24T09:37:43.628Z,38.80
2022-12-24T09:38:46.251Z,41.08
2022-12-24T09:39:48.752Z,38.85
2022-12-24T09:40:51.592Z,43.91
2022-12-24T09:41:54.315Z,45.25
2022-12-24T09:42:57.436Z,41.94
2022-12-24T09:43:59.958Z,45.79
2022-12-24T09:45:02.816Z,44.93
2022-12-24T09:46:05.618Z,41.44
2022-12-24T09:47:10.151Z,49.67
2022-12-24T09:48:12.674Z,45.58
2022-12-24T09:49:15.223Z,42.89
2022-12-24T09:50:17.860Z,42.95
2022-12-24T09:51:20.643Z,41.63
2022-12-24T09:52:23.184Z,42.28
2022-12-24T09:53:25.778Z,46.47
2022-12-24T09:54:28.317Z,43.61
2022-12-24T09:55:30.849Z,43.42
2022-12-24T09:56:34.146Z,44.55
2022-12-24T09:57:36.684Z,46.77
2022-12-24T09:58:39.157Z,42.00
2022-12-24T09:59:41.833Z,46.17
2022-12-24T10:00:49.875Z,44.00
2022-12-24T10:01:49.302Z,44.29
2022-12-24T10:02:52.043Z,49.56
2022-12-24T10:03:54.766Z,46.77
2022-12-24T10:04:57.581Z,49.50
2022-12-24T10:06:00.122Z,49.31
2022-12-24T10:07:02.843Z,48.63
2022-12-24T10:08:05.361Z,53.89
2022-12-24T10:09:07.980Z,50.77
2022-12-24T10:10:10.920Z,51.13
2022-12-24T10:11:13.649Z,45.38
2022-12-24T10:12:16.183Z,46.57
2022-12-24T10:13:18.699Z,53.29
2022-12-24T10:14:21.286Z,51.93
2022-12-24T10:15:23.821Z,56.07
2022-12-24T10:16:26.694Z,56.44
2022-12-24T10:17:29.301Z,50.60
2022-12-24T10:18:31.837Z,50.79
2022-12-24T10:19:34.428Z,54.66
2022-12-24T10:20:37.292Z,49.71
2022-12-24T10:21:39.829Z,55.55
2022-12-24T10:22:42.366Z,57.93
2022-12-24T10:23:44.910Z,50.28
2022-12-24T10:24:50.645Z,45.70
2022-12-24T10:25:51.830Z,42.58
2022-12-24T10:26:54.583Z,45.93
2022-12-24T10:27:57.121Z,46.48
2022-12-24T10:28:59.691Z,45.02
2022-12-24T10:30:02.247Z,46.62
2022-12-24T10:31:04.884Z,47.60
2022-12-24T10:32:07.680Z,43.32
2022-12-24T10:33:10.277Z,45.82
2022-12-24T10:34:12.925Z,42.79
2022-12-24T10:35:15.497Z,43.84
2022-12-24T10:36:18.597Z,44.76
2022-12-24T10:37:21.098Z,43.07
2022-12-24T10:38:23.738Z,47.18
2022-12-24T10:39:26.245Z,42.83
2022-12-24T10:40:29.009Z,46.43
2022-12-24T10:41:31.769Z,42.43
2022-12-24T10:42:34.338Z,45.54
2022-12-24T10:43:36.872Z,43.62
2022-12-24T10:44:39.406Z,50.29
2022-12-24T10:45:42.003Z,46.65
2022-12-24T10:46:45.132Z,43.32
2022-12-24T10:47:47.684Z,46.35
2022-12-24T10:48:51.048Z,39.44
2022-12-24T10:49:53.911Z,45.25
2022-12-24T10:50:56.924Z,40.83
2022-12-24T10:51:59.485Z,41.77
2022-12-24T10:53:02.250Z,44.39
2022-12-24T10:54:04.752Z,43.55
2022-12-24T10:55:07.294Z,41.57
2022-12-24T10:56:10.317Z,44.44
2022-12-24T10:57:12.838Z,41.81
2022-12-24T10:58:15.373Z,44.35
2022-12-24T10:59:18.168Z,41.51
2022-12-24T11:00:21.036Z,42.62
2022-12-24T11:01:24.621Z,43.55
2022-12-24T11:02:27.368Z,41.29
2022-12-24T11:03:30.327Z,46.79
2022-12-24T11:04:33.124Z,41.10
2022-12-24T11:05:35.705Z,44.31
2022-12-24T11:06:38.532Z,46.30
2022-12-24T11:07:41.067Z,41.29
2022-12-24T11:08:43.603Z,48.93
2022-12-24T11:09:46.143Z,43.73
2022-12-24T11:10:48.787Z,45.45
2022-12-24T11:11:52.757Z,41.72
2022-12-24T11:13:20.319Z,43.06
2022-12-24T11:13:59.656Z,46.66
2022-12-24T11:15:02.192Z,45.35
2022-12-24T11:16:05.011Z,46.38
2022-12-24T11:17:07.957Z,45.38
2022-12-24T11:18:10.501Z,49.49
2022-12-24T11:19:13.038Z,45.50
2022-12-24T11:20:16.069Z,50.18
2022-12-24T11:21:18.654Z,43.11
2022-12-24T11:22:21.231Z,47.33
2022-12-24T11:23:23.766Z,46.45
2022-12-24T11:24:26.332Z,45.68
2022-12-24T11:25:28.848Z,43.81
2022-12-24T11:26:31.591Z,43.99
2022-12-24T11:27:34.174Z,49.69
2022-12-24T11:28:36.703Z,48.49
2022-12-24T11:29:39.360Z,48.44
2022-12-24T11:30:42.123Z,47.26
2022-12-24T11:31:44.622Z,47.77
2022-12-24T11:32:47.196Z,49.10
2022-12-24T11:33:49.755Z,52.27
2022-12-24T11:34:52.289Z,47.41
2022-12-24T11:35:54.842Z,46.79
2022-12-24T11:36:57.351Z,48.02
2022-12-24T11:38:00.035Z,48.16
2022-12-24T11:39:02.586Z,49.41
2022-12-24T11:40:05.400Z,47.10
2022-12-24T11:41:07.943Z,44.15
2022-12-24T11:42:10.488Z,56.49
2022-12-24T11:43:14.999Z,45.63
2022-12-24T11:44:17.424Z,45.96
2022-12-24T11:45:19.853Z,49.60
2022-12-24T11:46:22.710Z,47.17
2022-12-24T11:47:25.311Z,44.93
2022-12-24T11:48:27.921Z,50.66
2022-12-24T11:49:30.484Z,52.21
2022-12-24T11:50:33.340Z,48.54
2022-12-24T11:51:35.878Z,49.72
2022-12-24T11:52:38.704Z,54.03
2022-12-24T11:53:41.331Z,55.44
2022-12-24T11:54:43.839Z,55.25
2022-12-24T11:55:46.456Z,58.53
2022-12-24T11:56:49.385Z,50.58
2022-12-24T11:57:51.914Z,60.52
2022-12-24T11:58:54.704Z,54.17
2022-12-24T11:59:57.237Z,56.45
2022-12-24T12:00:59.968Z,55.63
2022-12-24T12:02:02.606Z,58.43
2022-12-24T12:03:05.471Z,55.50
2022-12-24T12:04:08.479Z,59.86
2022-12-24T12:05:11.373Z,53.37
2022-12-24T12:06:14.626Z,58.39
2022-12-24T12:07:17.200Z,63.51
2022-12-24T12:08:19.722Z,52.87
2022-12-24T12:09:22.293Z,54.55
2022-12-24T12:10:24.912Z,72.69
2022-12-24T12:11:27.468Z,60.02
2022-12-24T12:12:30.012Z,57.53
2022-12-24T12:13:32.543Z,57.57
2022-12-24T12:14:35.124Z,59.55
2022-12-24T12:15:37.668Z,50.59
2022-12-24T12:16:40.786Z,59.18
2022-12-24T12:17:43.312Z,63.31
2022-12-24T12:18:45.747Z,60.92
2022-12-24T12:19:48.324Z,57.43
2022-12-24T12:20:51.047Z,55.34
2022-12-24T12:21:53.594Z,55.55
2022-12-24T12:22:56.131Z,58.34
2022-12-24T12:23:58.668Z,64.99
2022-12-24T12:25:01.226Z,54.29
2022-12-24T12:26:03.806Z,59.99
2022-12-24T12:27:06.339Z,60.33
2022-12-24T12:28:08.896Z,52.38
2022-12-24T12:29:11.440Z,62.62
2022-12-24T12:30:14.451Z,65.02
2022-12-24T12:31:17.155Z,62.04
2022-12-24T12:32:19.790Z,63.75
2022-12-24T12:33:22.432Z,60.31
2022-12-24T12:34:25.155Z,53.32
2022-12-24T12:35:27.723Z,61.15
2022-12-24T12:36:30.471Z,58.49
2022-12-24T12:37:33.003Z,67.23
2022-12-24T12:38:35.557Z,58.61
2022-12-24T12:39:38.114Z,58.65
2022-12-24T12:40:41.482Z,58.04
2022-12-24T12:41:44.021Z,64.21
2022-12-24T12:42:46.577Z,57.42
2022-12-24T12:43:49.105Z,57.87
2022-12-24T12:44:52.148Z,54.73
2022-12-24T12:45:54.714Z,59.03
2022-12-24T12:46:57.562Z,63.47
2022-12-24T12:48:00.115Z,66.83
2022-12-24T12:49:03.344Z,60.69
2022-12-24T12:50:06.412Z,68.62
2022-12-24T12:51:09.016Z,53.91
2022-12-24T12:52:11.564Z,57.55
2022-12-24T12:53:14.325Z,58.53
2022-12-24T12:54:16.838Z,61.09
2022-12-24T12:55:24.360Z,65.17
2022-12-24T12:56:23.988Z,64.98
2022-12-24T12:57:26.486Z,66.13
2022-12-24T12:58:29.049Z,60.79
2022-12-24T12:59:31.587Z,62.55
2022-12-24T13:00:34.335Z,64.28
2022-12-24T13:01:37.063Z,62.99
2022-12-24T13:02:41.337Z,66.97
2022-12-24T13:03:43.907Z,59.40
2022-12-24T13:04:46.469Z,65.33
2022-12-24T13:05:49.025Z,64.31
2022-12-24T13:06:51.923Z,62.79
2022-12-24T13:07:55.978Z,58.54
2022-12-24T13:08:59.359Z,62.85
2022-12-24T13:10:01.930Z,62.15
2022-12-24T13:11:04.466Z,66.29
2022-12-24T13:12:07.632Z,63.49
2022-12-24T13:13:13.052Z,64.59
2022-12-24T13:14:14.716Z,56.44
2022-12-24T13:15:17.768Z,58.45
2022-12-24T13:16:26.561Z,60.88
2022-12-24T13:17:29.605Z,56.73
2022-12-24T13:18:32.140Z,69.25
2022-12-24T13:19:38.333Z,62.95
2022-12-24T13:20:40.417Z,65.67
2022-12-24T13:21:46.031Z,61.09
2022-12-24T13:22:49.220Z,61.79
2022-12-24T13:23:52.394Z,70.59
2022-12-24T13:24:55.616Z,61.37
2022-12-24T13:25:58.579Z,62.36
2022-12-24T13:27:01.483Z,60.63
2022-12-24T13:28:04.061Z,69.60